createdAt,value
2018-07-09T00:02:51.008Z,18.40
2018-07-09T00:07:41.928Z,18.30
2018-07-09T00:12:32.824Z,18.30
2018-07-09T00:17:23.717Z,18.20
2018-07-09T00:22:14.632Z,18.10
2018-07-09T00:27:05.516Z,18.00
2018-07-09T00:31:56.408Z,18.00
2018-07-09T00:36:47.290Z,18.00
2018-07-09T00:41:38.183Z,17.90
2018-07-09T00:46:29.828Z,17.90
2018-07-09T00:51:21.475Z,17.90
2018-07-09T00:56:12.403Z,17.90
2018-07-09T01:01:03.329Z,17.90
2018-07-09T01:05:54.265Z,17.80
2018-07-09T01:10:45.170Z,17.80
2018-07-09T01:15:36.090Z,17.80
2018-07-09T01:20:27.094Z,17.80
2018-07-09T01:25:18.725Z,17.70
2018-07-09T01:30:09.646Z,17.70
2018-07-09T01:35:00.570Z,17.70
2018-07-09T01:39:51.487Z,17.70
2018-07-09T01:44:42.406Z,17.70
2018-07-09T01:49:33.325Z,17.70
2018-07-09T01:54:24.242Z,17.70
2018-07-09T01:59:15.167Z,17.70
2018-07-09T02:04:06.073Z,17.70
2018-07-09T02:08:56.997Z,17.60
2018-07-09T02:13:47.911Z,17.60
2018-07-09T02:18:38.842Z,17.60
2018-07-09T02:23:29.750Z,17.50
2018-07-09T02:28:20.649Z,17.40
2018-07-09T02:33:12.306Z,17.30
2018-07-09T02:38:03.205Z,17.30
2018-07-09T02:42:54.846Z,17.20
2018-07-09T02:47:46.495Z,17.10
2018-07-09T02:52:37.409Z,17.10
2018-07-09T02:57:28.313Z,17.10
2018-07-09T03:02:19.970Z,16.90
2018-07-09T03:07:10.893Z,16.90
2018-07-09T03:12:01.806Z,16.90
2018-07-09T03:16:52.721Z,16.80
2018-07-09T03:21:43.643Z,16.70
2018-07-09T03:26:34.567Z,16.60
2018-07-09T03:31:25.486Z,16.60
2018-07-09T03:36:16.404Z,16.50
2018-07-09T03:41:07.308Z,16.50
2018-07-09T03:45:58.970Z,16.40
2018-07-09T03:50:49.882Z,16.30
2018-07-09T03:55:40.790Z,16.30
2018-07-09T04:00:31.706Z,16.30
2018-07-09T04:05:22.642Z,16.20
2018-07-09T04:10:13.557Z,16.20
2018-07-09T04:15:04.478Z,16.20
2018-07-09T04:19:55.388Z,16.20
2018-07-09T04:24:46.302Z,16.20
2018-07-09T04:29:37.250Z,16.20
2018-07-09T04:34:28.162Z,16.20
2018-07-09T04:39:19.069Z,16.20
2018-07-09T04:44:09.989Z,16.20
2018-07-09T04:49:00.896Z,16.20
2018-07-09T04:53:51.814Z,16.20
2018-07-09T04:58:42.731Z,16.30
2018-07-09T05:03:33.650Z,16.30
2018-07-09T05:08:24.621Z,16.40
2018-07-09T05:13:15.538Z,16.50
2018-07-09T05:18:06.456Z,16.50
2018-07-09T05:22:57.370Z,16.60
2018-07-09T05:27:48.284Z,16.60
2018-07-09T05:32:39.198Z,16.60
2018-07-09T05:37:30.113Z,16.70
2018-07-09T05:42:21.021Z,16.70
2018-07-09T05:47:11.938Z,16.80
2018-07-09T05:52:02.870Z,16.90
2018-07-09T05:56:53.799Z,17.00
2018-07-09T06:01:44.705Z,17.00
2018-07-09T06:06:35.646Z,17.10
2018-07-09T06:11:28.168Z,17.20
2018-07-09T06:16:19.812Z,17.20
2018-07-09T06:21:10.722Z,17.20
2018-07-09T06:26:01.642Z,17.30
2018-07-09T06:30:52.549Z,17.40
2018-07-09T06:35:43.466Z,17.40
2018-07-09T06:40:34.380Z,17.50
2018-07-09T06:45:25.294Z,17.60
2018-07-09T06:50:16.201Z,17.60
2018-07-09T06:55:07.866Z,17.90
2018-07-09T06:59:58.773Z,17.80
2018-07-09T07:04:49.687Z,18.00
2018-07-09T07:09:40.610Z,18.10
2018-07-09T07:14:31.541Z,18.20
2018-07-09T07:19:22.472Z,18.40
2018-07-09T07:24:13.396Z,18.70
2018-07-09T07:29:04.337Z,18.90
2018-07-09T07:33:55.250Z,19.20
2018-07-09T07:38:46.909Z,19.70
2018-07-09T07:43:38.559Z,19.90
2018-07-09T07:48:30.218Z,20.20
2018-07-09T07:53:21.193Z,20.10
2018-07-09T07:58:12.855Z,20.50
2018-07-09T08:03:03.808Z,20.50
2018-07-09T08:07:54.685Z,20.70
2018-07-09T08:13:27.175Z,21.00
2018-07-09T08:17:37.265Z,21.00
2018-07-09T08:22:28.219Z,21.20
2018-07-09T08:27:19.118Z,21.40
2018-07-09T08:32:10.035Z,21.50
2018-07-09T08:37:00.949Z,21.70
2018-07-09T08:41:51.878Z,21.80
2018-07-09T08:46:42.791Z,21.90
2018-07-09T08:51:33.702Z,21.90
2018-07-09T08:56:24.618Z,22.00
2018-07-09T09:01:15.532Z,22.20
2018-07-09T09:06:06.461Z,22.30
2018-07-09T09:10:57.380Z,22.50
2018-07-09T09:15:48.274Z,22.60
2018-07-09T09:20:39.199Z,22.70
2018-07-09T09:25:30.115Z,22.80
2018-07-09T09:30:21.014Z,22.90
2018-07-09T09:35:12.662Z,23.00
2018-07-09T09:40:03.557Z,23.00
2018-07-09T09:44:55.209Z,23.10
2018-07-09T09:49:46.119Z,23.10
2018-07-09T09:54:37.761Z,23.00
2018-07-09T09:59:28.705Z,23.00
2018-07-09T10:04:19.609Z,23.00
2018-07-09T10:09:10.743Z,22.90
2018-07-09T10:14:01.654Z,22.80
2018-07-09T10:18:52.586Z,22.80
2018-07-09T10:23:43.570Z,22.70
2018-07-09T10:28:35.247Z,22.70
2018-07-09T10:33:26.163Z,22.60
2018-07-09T10:38:17.073Z,22.70
2018-07-09T10:43:07.992Z,22.80
2018-07-09T10:47:58.905Z,22.80
2018-07-09T10:52:49.809Z,23.00
2018-07-09T10:57:40.717Z,23.20
2018-07-09T11:02:32.366Z,23.60
2018-07-09T11:07:23.281Z,23.50
2018-07-09T11:12:14.193Z,23.70
2018-07-09T11:17:05.857Z,24.30
2018-07-09T11:21:56.766Z,24.20
2018-07-09T11:26:47.678Z,24.60
2018-07-09T11:31:38.594Z,24.80
2018-07-09T11:36:29.587Z,24.90
2018-07-09T11:41:20.428Z,25.00
2018-07-09T11:46:11.336Z,25.10
2018-07-09T11:51:03.034Z,25.60
2018-07-09T11:55:53.945Z,25.60
2018-07-09T12:00:44.860Z,26.00
2018-07-09T12:05:35.787Z,26.20
2018-07-09T12:10:26.702Z,26.40
2018-07-09T12:15:17.610Z,26.50
2018-07-09T12:20:08.509Z,26.50
2018-07-09T12:24:59.418Z,26.50
2018-07-09T12:29:50.344Z,26.40
2018-07-09T12:34:41.245Z,26.40
2018-07-09T12:39:32.148Z,26.30
2018-07-09T12:44:23.816Z,26.10
2018-07-09T12:49:14.726Z,26.10
2018-07-09T12:54:05.633Z,26.10
2018-07-09T12:58:56.555Z,26.10
2018-07-09T13:03:47.482Z,26.10
2018-07-09T13:08:39.570Z,26.20
2018-07-09T13:13:30.485Z,26.20
2018-07-09T13:18:21.403Z,26.20
2018-07-09T13:23:12.332Z,26.30
2018-07-09T13:28:03.243Z,26.30
2018-07-09T13:32:54.163Z,26.30
2018-07-09T13:37:45.117Z,26.30
2018-07-09T13:42:35.997Z,26.30
2018-07-09T13:47:26.903Z,26.30
2018-07-09T13:52:17.861Z,26.40
2018-07-09T13:57:08.773Z,26.40
2018-07-09T14:01:59.677Z,26.40
2018-07-09T14:06:50.594Z,26.40
2018-07-09T14:11:41.505Z,26.50
2018-07-09T14:16:32.421Z,26.50
2018-07-09T14:21:23.357Z,26.50
2018-07-09T14:26:14.273Z,26.60
2018-07-09T14:31:05.177Z,26.70
2018-07-09T14:35:56.098Z,26.90
2018-07-09T14:40:47.041Z,27.30
2018-07-09T14:45:37.957Z,27.40
2018-07-09T14:50:28.877Z,27.50
2018-07-09T14:55:19.789Z,27.60
2018-07-09T15:00:10.709Z,27.70
2018-07-09T15:05:01.637Z,27.70
2018-07-09T15:09:52.553Z,27.70
2018-07-09T15:14:43.466Z,27.70
2018-07-09T15:19:34.390Z,27.70
2018-07-09T15:24:25.317Z,27.70
2018-07-09T15:29:16.225Z,27.70
2018-07-09T15:34:07.154Z,27.60
2018-07-09T15:38:58.823Z,27.50
2018-07-09T15:43:55.765Z,27.50
2018-07-09T15:48:46.687Z,27.30
2018-07-09T15:53:37.606Z,27.20
2018-07-09T15:58:28.535Z,27.10
2018-07-09T16:03:19.463Z,27.00
2018-07-09T16:08:10.382Z,26.90
2018-07-09T16:13:01.298Z,26.80
2018-07-09T16:17:52.218Z,26.70
2018-07-09T16:22:43.133Z,26.60
2018-07-09T16:27:34.050Z,26.40
2018-07-09T16:32:24.974Z,26.40
2018-07-09T16:37:15.873Z,26.30
2018-07-09T16:42:06.781Z,26.20
2018-07-09T16:46:58.432Z,26.00
2018-07-09T16:51:49.357Z,26.00
2018-07-09T16:56:40.261Z,26.00
2018-07-09T17:01:31.166Z,25.90
2018-07-09T17:06:22.813Z,25.80
2018-07-09T17:11:13.742Z,25.80
2018-07-09T17:16:04.942Z,25.70
2018-07-09T17:20:56.609Z,25.60
2018-07-09T17:25:47.518Z,25.60
2018-07-09T17:30:38.417Z,25.50
2018-07-09T17:35:30.078Z,25.20
2018-07-09T17:40:20.977Z,25.20
2018-07-09T17:45:12.681Z,24.90
2018-07-09T17:50:03.581Z,24.90
2018-07-09T17:54:54.493Z,24.70
2018-07-09T17:59:45.397Z,24.50
2018-07-09T18:04:36.360Z,24.30
2018-07-09T18:09:28.763Z,23.90
2018-07-09T18:14:19.677Z,23.90
2018-07-09T18:19:10.708Z,23.70
2018-07-09T18:24:01.662Z,23.60
2018-07-09T18:28:52.578Z,23.30
2018-07-09T18:33:43.522Z,23.20
2018-07-09T18:38:35.234Z,22.80
2018-07-09T18:43:26.110Z,22.70
2018-07-09T18:48:17.032Z,22.60
2018-07-09T18:53:07.946Z,22.40
2018-07-09T18:57:58.870Z,22.20
2018-07-09T19:02:49.793Z,22.00
2018-07-09T19:07:40.714Z,21.80
2018-07-09T19:12:31.738Z,21.60
2018-07-09T19:17:22.651Z,21.40
2018-07-09T19:22:13.552Z,21.30
2018-07-09T19:27:04.391Z,21.10
2018-07-09T19:31:55.265Z,21.00
2018-07-09T19:36:46.104Z,20.80
2018-07-09T19:41:38.914Z,20.70
2018-07-09T19:46:29.909Z,20.60
2018-07-09T19:51:20.746Z,20.40
2018-07-09T19:56:11.663Z,20.30
2018-07-09T20:01:02.496Z,20.20
2018-07-09T20:05:53.464Z,20.10
2018-07-09T20:11:05.406Z,19.90
2018-07-09T20:16:02.409Z,19.80
2018-07-09T20:20:54.017Z,19.60
2018-07-09T20:25:44.829Z,19.60
2018-07-09T20:30:35.794Z,19.50
2018-07-09T20:35:26.684Z,19.40
2018-07-09T20:40:18.277Z,19.20
2018-07-09T20:45:24.450Z,19.10
2018-07-09T20:50:21.647Z,19.00
2018-07-09T20:55:13.259Z,18.80
2018-07-09T21:00:04.101Z,18.80
2018-07-09T21:04:54.965Z,18.70
2018-07-09T21:09:45.832Z,18.60
2018-07-09T21:14:36.674Z,18.50
2018-07-09T21:19:27.517Z,18.40
2018-07-09T21:24:18.359Z,18.40
2018-07-09T21:29:09.203Z,18.20
2018-07-09T21:34:00.095Z,18.10
2018-07-09T21:38:51.653Z,18.00
2018-07-09T21:43:42.499Z,18.00
2018-07-09T21:48:34.105Z,17.80
2018-07-09T21:53:24.949Z,17.80
2018-07-09T21:58:15.790Z,17.80
2018-07-09T22:03:06.648Z,17.70
2018-07-09T22:07:57.481Z,17.60
2018-07-09T22:12:48.333Z,17.60
2018-07-09T22:17:39.936Z,17.40
2018-07-09T22:22:30.785Z,17.40
2018-07-09T22:27:22.379Z,17.30
2018-07-09T22:32:13.302Z,17.20
2018-07-09T22:37:05.055Z,17.20
2018-07-09T22:41:56.071Z,17.10
2018-07-09T22:46:47.714Z,17.00
2018-07-09T22:51:38.729Z,17.00
2018-07-09T22:56:29.629Z,17.00
2018-07-09T23:01:20.554Z,16.90
2018-07-09T23:06:11.466Z,16.90
2018-07-09T23:11:02.387Z,16.90
2018-07-09T23:15:53.313Z,16.80
2018-07-09T23:20:44.228Z,16.80
2018-07-09T23:25:35.062Z,16.70
2018-07-09T23:30:25.921Z,16.70
2018-07-09T23:35:16.774Z,16.70
2018-07-09T23:40:07.613Z,16.60
2018-07-09T23:44:58.446Z,16.60
2018-07-09T23:49:50.030Z,16.60
2018-07-09T23:54:40.889Z,16.50
